Date,TemperatureHighF,TemperatureAvgF,TemperatureLowF,DewpointHighF,DewpointAvgF,DewpointLowF,HumidityHigh,HumidityAvg,HumidityLow,PressureMaxIn,PressureMinIn,WindSpeedMaxMPH,WindSpeedAvgMPH,GustSpeedMaxMPH,PrecipitationSumIn
2013-2-1,34,27,21,-100,-100,-100,0,0,100,0.00,40.00,12,5,35,0.01
2013-2-2,32,23,17,-100,-100,-100,0,0,100,0.00,40.00,6,2,15,0.00
2013-2-3,32,22,13,-100,-100,-100,0,0,100,0.00,40.00,3,1,7,0.03
2013-2-4,35,25,19,-100,-100,-100,0,0,100,0.00,40.00,10,3,23,0.01
2013-2-5,31,27,23,-100,-100,-100,0,0,100,0.00,40.00,6,1,9,0.01
2013-2-6,41,29,21,-100,-100,-100,0,0,100,0.00,40.00,9,2,17,0.06
2013-2-7,33,24,15,-100,-100,-100,0,0,100,0.00,40.00,5,1,8,0.01
2013-2-8,33,30,26,-100,-100,-100,0,0,100,0.00,40.00,9,5,18,0.00
2013-2-9,37,26,9,-100,-100,-100,0,0,100,0.00,40.00,10,4,25,0.02
2013-2-10,39,16,-3,-100,-100,-100,0,0,100,0.00,40.00,3,1,7,0.04
2013-2-11,41,33,20,-100,-100,-100,0,0,100,0.00,40.00,2,0,6,0.49
2013-2-12,43,38,32,-100,-100,-100,0,0,100,0.00,40.00,8,3,20,0.26
2013-2-13,49,36,25,-100,-100,-100,0,0,100,0.00,40.00,5,1,12,0.06
2013-2-14,50,33,22,-100,-100,-100,0,0,100,0.00,40.00,3,0,7,0.05
2013-2-15,55,39,27,-100,-100,-100,0,0,100,0.00,40.00,5,1,14,0.06
2013-2-16,39,33,28,-100,-100,-100,0,0,100,0.00,40.00,9,2,18,0.12
2013-2-17,34,24,15,-100,-100,-100,0,0,100,0.00,40.00,17,8,35,0.01
2013-2-18,38,22,14,-100,-100,-100,0,0,100,0.00,40.00,10,4,24,0.00
2013-2-19,45,32,19,-100,-100,-100,0,0,100,0.00,40.00,6,1,20,0.14
2013-2-20,36,29,23,-100,-100,-100,0,0,100,0.00,40.00,11,6,31,0.07
2013-2-21,36,26,21,-100,-100,-100,0,0,100,0.00,40.00,15,6,28,0.00
2013-2-22,41,28,16,-100,-100,-100,0,0,100,0.00,40.00,6,1,13,0.00
2013-2-23,40,36,33,-100,-100,-100,0,0,100,0.00,40.00,7,1,13,0.08
2013-2-24,46,36,29,-100,-100,-100,0,0,100,0.00,40.00,10,2,23,0.04
2013-2-25,49,34,23,-100,-100,-100,0,0,100,0.00,40.00,5,1,12,0.02
2013-2-26,44,36,26,-100,-100,-100,0,0,100,0.00,40.00,9,2,24,0.02
2013-2-27,44,39,33,-100,-100,-100,0,0,100,0.00,40.00,10,3,25,0.56
2013-2-28,52,40,34,-100,-100,-100,0,0,100,0.00,40.00,5,1,12,0.03